sensor_id;sensor_type;location;lat;lon;timestamp;P1;durP1;ratioP1;P2;durP2;ratioP2
6973;SDS011;3527;52.376;8.990;2023-03-11T00:00:26;13.63;;;8.13;;
6973;SDS011;3527;52.376;8.990;2023-03-11T00:02:55;15.60;;;9.03;;
6973;SDS011;3527;52.376;8.990;2023-03-11T00:05:24;14.47;;;7.67;;
6973;SDS011;3527;52.376;8.990;2023-03-11T00:07:53;13.17;;;7.53;;
6973;SDS011;3527;52.376;8.990;2023-03-11T00:10:22;15.73;;;8.63;;
6973;SDS011;3527;52.376;8.990;2023-03-11T00:12:54;12.93;;;7.37;;
6973;SDS011;3527;52.376;8.990;2023-03-11T00:15:21;14.47;;;7.73;;
6973;SDS011;3527;52.376;8.990;2023-03-11T00:17:48;12.33;;;7.10;;
6973;SDS011;3527;52.376;8.990;2023-03-11T00:20:25;9.20;;;6.27;;
6973;SDS011;3527;52.376;8.990;2023-03-11T00:22:54;11.67;;;6.43;;
6973;SDS011;3527;52.376;8.990;2023-03-11T00:25:23;10.33;;;6.20;;
6973;SDS011;3527;52.376;8.990;2023-03-11T00:27:51;11.67;;;6.73;;
6973;SDS011;3527;52.376;8.990;2023-03-11T00:30:18;12.90;;;6.70;;
6973;SDS011;3527;52.376;8.990;2023-03-11T00:32:47;12.07;;;6.23;;
6973;SDS011;3527;52.376;8.990;2023-03-11T00:35:16;11.77;;;6.07;;
6973;SDS011;3527;52.376;8.990;2023-03-11T00:37:45;12.10;;;6.17;;
6973;SDS011;3527;52.376;8.990;2023-03-11T00:40:14;8.97;;;5.40;;
6973;SDS011;3527;52.376;8.990;2023-03-11T00:42:43;12.33;;;6.33;;
6973;SDS011;3527;52.376;8.990;2023-03-11T00:45:10;11.90;;;6.53;;
6973;SDS011;3527;52.376;8.990;2023-03-11T00:47:38;12.70;;;6.17;;
6973;SDS011;3527;52.376;8.990;2023-03-11T00:50:05;9.63;;;6.47;;
6973;SDS011;3527;52.376;8.990;2023-03-11T00:52:33;15.83;;;6.50;;
6973;SDS011;3527;52.376;8.990;2023-03-11T00:54:59;11.30;;;5.57;;
6973;SDS011;3527;52.376;8.990;2023-03-11T00:57:26;13.50;;;6.47;;
6973;SDS011;3527;52.376;8.990;2023-03-11T00:59:54;11.37;;;5.93;;
6973;SDS011;3527;52.376;8.990;2023-03-11T01:02:21;11.57;;;5.73;;
6973;SDS011;3527;52.376;8.990;2023-03-11T01:04:52;9.77;;;6.00;;
6973;SDS011;3527;52.376;8.990;2023-03-11T01:07:20;10.50;;;5.50;;
6973;SDS011;3527;52.376;8.990;2023-03-11T01:09:48;9.97;;;5.90;;
6973;SDS011;3527;52.376;8.990;2023-03-11T01:12:15;9.50;;;6.07;;
6973;SDS011;3527;52.376;8.990;2023-03-11T01:14:41;12.17;;;6.07;;
6973;SDS011;3527;52.376;8.990;2023-03-11T01:17:08;10.97;;;5.50;;
6973;SDS011;3527;52.376;8.990;2023-03-11T01:19:35;9.10;;;5.90;;
6973;SDS011;3527;52.376;8.990;2023-03-11T01:22:02;12.90;;;6.40;;
6973;SDS011;3527;52.376;8.990;2023-03-11T01:24:29;14.67;;;6.43;;
6973;SDS011;3527;52.376;8.990;2023-03-11T01:26:55;12.23;;;6.30;;
6973;SDS011;3527;52.376;8.990;2023-03-11T01:29:22;12.90;;;6.20;;
6973;SDS011;3527;52.376;8.990;2023-03-11T01:31:49;13.50;;;5.97;;
6973;SDS011;3527;52.376;8.990;2023-03-11T01:34:16;14.87;;;6.67;;
6973;SDS011;3527;52.376;8.990;2023-03-11T01:36:43;13.53;;;7.00;;
6973;SDS011;3527;52.376;8.990;2023-03-11T01:39:09;10.07;;;5.57;;
6973;SDS011;3527;52.376;8.990;2023-03-11T01:41:36;10.20;;;5.77;;
6973;SDS011;3527;52.376;8.990;2023-03-11T01:44:03;10.63;;;5.07;;
6973;SDS011;3527;52.376;8.990;2023-03-11T01:46:32;10.50;;;5.40;;
6973;SDS011;3527;52.376;8.990;2023-03-11T01:49:25;12.47;;;5.30;;
6973;SDS011;3527;52.376;8.990;2023-03-11T01:52:02;10.47;;;5.20;;
6973;SDS011;3527;52.376;8.990;2023-03-11T01:54:34;9.00;;;5.33;;
6973;SDS011;3527;52.376;8.990;2023-03-11T01:57:05;12.47;;;5.90;;
6973;SDS011;3527;52.376;8.990;2023-03-11T01:59:36;9.90;;;5.30;;
6973;SDS011;3527;52.376;8.990;2023-03-11T02:02:09;10.10;;;5.60;;
6973;SDS011;3527;52.376;8.990;2023-03-11T02:04:42;10.03;;;6.23;;
6973;SDS011;3527;52.376;8.990;2023-03-11T02:07:10;9.53;;;5.20;;
6973;SDS011;3527;52.376;8.990;2023-03-11T02:09:39;9.40;;;5.00;;
6973;SDS011;3527;52.376;8.990;2023-03-11T02:12:06;7.63;;;4.90;;
6973;SDS011;3527;52.376;8.990;2023-03-11T02:14:37;11.07;;;5.20;;
6973;SDS011;3527;52.376;8.990;2023-03-11T02:17:07;18.03;;;4.83;;
6973;SDS011;3527;52.376;8.990;2023-03-11T02:22:01;9.53;;;4.97;;
6973;SDS011;3527;52.376;8.990;2023-03-11T02:27:17;14.53;;;4.40;;
6973;SDS011;3527;52.376;8.990;2023-03-11T02:29:45;11.30;;;4.80;;
6973;SDS011;3527;52.376;8.990;2023-03-11T02:32:15;9.57;;;5.03;;
6973;SDS011;3527;52.376;8.990;2023-03-11T02:34:42;10.30;;;4.87;;
6973;SDS011;3527;52.376;8.990;2023-03-11T02:37:10;12.90;;;5.10;;
6973;SDS011;3527;52.376;8.990;2023-03-11T02:39:41;9.50;;;5.30;;
6973;SDS011;3527;52.376;8.990;2023-03-11T02:44:43;9.37;;;4.73;;
6973;SDS011;3527;52.376;8.990;2023-03-11T02:47:12;9.90;;;5.20;;
6973;SDS011;3527;52.376;8.990;2023-03-11T02:49:40;9.30;;;4.87;;
6973;SDS011;3527;52.376;8.990;2023-03-11T02:52:07;9.50;;;5.27;;
6973;SDS011;3527;52.376;8.990;2023-03-11T02:54:34;12.83;;;5.53;;
6973;SDS011;3527;52.376;8.990;2023-03-11T02:57:00;9.93;;;5.37;;
6973;SDS011;3527;52.376;8.990;2023-03-11T02:59:27;11.57;;;4.80;;
6973;SDS011;3527;52.376;8.990;2023-03-11T03:01:54;10.03;;;5.50;;
6973;SDS011;3527;52.376;8.990;2023-03-11T03:04:21;9.67;;;5.23;;
6973;SDS011;3527;52.376;8.990;2023-03-11T03:06:47;15.30;;;5.90;;
6973;SDS011;3527;52.376;8.990;2023-03-11T03:09:14;7.67;;;4.67;;
6973;SDS011;3527;52.376;8.990;2023-03-11T03:11:41;9.63;;;4.70;;
6973;SDS011;3527;52.376;8.990;2023-03-11T03:14:08;10.23;;;4.70;;
6973;SDS011;3527;52.376;8.990;2023-03-11T03:16:34;7.87;;;4.73;;
6973;SDS011;3527;52.376;8.990;2023-03-11T03:19:01;8.37;;;4.60;;
6973;SDS011;3527;52.376;8.990;2023-03-11T03:21:28;10.93;;;5.67;;
6973;SDS011;3527;52.376;8.990;2023-03-11T03:23:55;8.67;;;5.10;;
6973;SDS011;3527;52.376;8.990;2023-03-11T03:26:21;9.13;;;5.00;;
6973;SDS011;3527;52.376;8.990;2023-03-11T03:28:48;6.80;;;4.57;;
6973;SDS011;3527;52.376;8.990;2023-03-11T03:31:15;8.73;;;4.60;;
6973;SDS011;3527;52.376;8.990;2023-03-11T03:33:42;6.90;;;4.67;;
6973;SDS011;3527;52.376;8.990;2023-03-11T03:36:10;10.47;;;4.63;;
6973;SDS011;3527;52.376;8.990;2023-03-11T03:38:38;9.53;;;4.40;;
6973;SDS011;3527;52.376;8.990;2023-03-11T03:41:05;8.07;;;4.73;;
6973;SDS011;3527;52.376;8.990;2023-03-11T03:43:32;12.20;;;4.50;;
6973;SDS011;3527;52.376;8.990;2023-03-11T03:46:00;11.20;;;4.77;;
6973;SDS011;3527;52.376;8.990;2023-03-11T03:48:28;7.53;;;4.20;;
6973;SDS011;3527;52.376;8.990;2023-03-11T03:50:55;10.67;;;5.03;;
6973;SDS011;3527;52.376;8.990;2023-03-11T03:53:22;11.97;;;4.40;;
6973;SDS011;3527;52.376;8.990;2023-03-11T03:55:49;7.90;;;5.27;;
6973;SDS011;3527;52.376;8.990;2023-03-11T03:58:16;12.33;;;4.47;;
6973;SDS011;3527;52.376;8.990;2023-03-11T04:00:43;9.57;;;4.63;;
6973;SDS011;3527;52.376;8.990;2023-03-11T04:03:09;11.07;;;5.33;;
6973;SDS011;3527;52.376;8.990;2023-03-11T04:05:36;12.43;;;4.30;;
6973;SDS011;3527;52.376;8.990;2023-03-11T04:08:03;12.30;;;4.60;;
6973;SDS011;3527;52.376;8.990;2023-03-11T04:10:30;11.83;;;4.00;;
6973;SDS011;3527;52.376;8.990;2023-03-11T04:12:57;8.10;;;4.20;;
6973;SDS011;3527;52.376;8.990;2023-03-11T04:15:24;9.07;;;4.30;;
6973;SDS011;3527;52.376;8.990;2023-03-11T04:17:51;13.40;;;4.53;;
6973;SDS011;3527;52.376;8.990;2023-03-11T04:20:19;11.57;;;3.77;;
6973;SDS011;3527;52.376;8.990;2023-03-11T04:22:46;9.57;;;3.70;;
6973;SDS011;3527;52.376;8.990;2023-03-11T04:25:13;12.30;;;3.77;;
6973;SDS011;3527;52.376;8.990;2023-03-11T04:27:40;6.30;;;3.43;;
6973;SDS011;3527;52.376;8.990;2023-03-11T04:30:11;5.10;;;3.10;;
6973;SDS011;3527;52.376;8.990;2023-03-11T04:32:38;12.07;;;3.70;;
6973;SDS011;3527;52.376;8.990;2023-03-11T04:35:05;6.27;;;3.17;;
6973;SDS011;3527;52.376;8.990;2023-03-11T04:37:32;9.10;;;3.50;;
6973;SDS011;3527;52.376;8.990;2023-03-11T04:39:59;7.40;;;2.70;;
6973;SDS011;3527;52.376;8.990;2023-03-11T04:42:26;7.77;;;3.00;;
6973;SDS011;3527;52.376;8.990;2023-03-11T04:44:52;13.20;;;3.57;;
6973;SDS011;3527;52.376;8.990;2023-03-11T04:47:19;6.33;;;2.60;;
6973;SDS011;3527;52.376;8.990;2023-03-11T04:49:47;7.43;;;3.33;;
6973;SDS011;3527;52.376;8.990;2023-03-11T04:52:13;5.23;;;2.57;;
6973;SDS011;3527;52.376;8.990;2023-03-11T04:54:40;8.17;;;3.10;;
6973;SDS011;3527;52.376;8.990;2023-03-11T04:57:07;7.83;;;3.10;;
6973;SDS011;3527;52.376;8.990;2023-03-11T04:59:34;11.87;;;3.57;;
6973;SDS011;3527;52.376;8.990;2023-03-11T05:02:00;9.30;;;3.10;;
6973;SDS011;3527;52.376;8.990;2023-03-11T05:04:27;8.80;;;3.00;;
6973;SDS011;3527;52.376;8.990;2023-03-11T05:06:54;6.47;;;2.53;;
6973;SDS011;3527;52.376;8.990;2023-03-11T05:09:21;5.83;;;2.70;;
6973;SDS011;3527;52.376;8.990;2023-03-11T05:11:48;8.70;;;2.60;;
6973;SDS011;3527;52.376;8.990;2023-03-11T05:14:14;8.13;;;2.87;;
6973;SDS011;3527;52.376;8.990;2023-03-11T05:16:41;10.80;;;3.00;;
6973;SDS011;3527;52.376;8.990;2023-03-11T05:19:08;8.50;;;2.93;;
6973;SDS011;3527;52.376;8.990;2023-03-11T05:21:53;8.33;;;2.53;;
6973;SDS011;3527;52.376;8.990;2023-03-11T05:24:20;6.93;;;3.60;;
6973;SDS011;3527;52.376;8.990;2023-03-11T05:26:46;10.00;;;2.83;;
6973;SDS011;3527;52.376;8.990;2023-03-11T05:29:14;7.17;;;2.73;;
6973;SDS011;3527;52.376;8.990;2023-03-11T05:31:41;6.17;;;2.63;;
6973;SDS011;3527;52.376;8.990;2023-03-11T05:34:07;8.30;;;2.93;;
6973;SDS011;3527;52.376;8.990;2023-03-11T05:36:34;6.83;;;2.60;;
6973;SDS011;3527;52.376;8.990;2023-03-11T05:39:01;5.83;;;2.70;;
6973;SDS011;3527;52.376;8.990;2023-03-11T05:41:28;5.83;;;2.90;;
6973;SDS011;3527;52.376;8.990;2023-03-11T05:43:54;8.27;;;3.03;;
6973;SDS011;3527;52.376;8.990;2023-03-11T05:46:21;5.77;;;2.30;;
6973;SDS011;3527;52.376;8.990;2023-03-11T05:48:48;7.60;;;2.83;;
6973;SDS011;3527;52.376;8.990;2023-03-11T05:51:15;5.07;;;2.43;;
6973;SDS011;3527;52.376;8.990;2023-03-11T05:53:42;6.37;;;2.70;;
6973;SDS011;3527;52.376;8.990;2023-03-11T05:56:14;8.43;;;2.73;;
6973;SDS011;3527;52.376;8.990;2023-03-11T05:58:41;8.67;;;2.87;;
6973;SDS011;3527;52.376;8.990;2023-03-11T06:01:08;7.00;;;2.47;;
6973;SDS011;3527;52.376;8.990;2023-03-11T06:03:36;7.90;;;2.70;;
6973;SDS011;3527;52.376;8.990;2023-03-11T06:06:04;6.23;;;2.70;;
6973;SDS011;3527;52.376;8.990;2023-03-11T06:08:33;6.97;;;2.37;;
6973;SDS011;3527;52.376;8.990;2023-03-11T06:11:01;9.07;;;2.43;;
6973;SDS011;3527;52.376;8.990;2023-03-11T06:13:29;9.97;;;2.87;;
6973;SDS011;3527;52.376;8.990;2023-03-11T06:15:56;6.00;;;2.27;;
6973;SDS011;3527;52.376;8.990;2023-03-11T06:18:23;8.67;;;2.23;;
6973;SDS011;3527;52.376;8.990;2023-03-11T06:20:52;6.73;;;2.40;;
6973;SDS011;3527;52.376;8.990;2023-03-11T06:23:20;7.10;;;2.10;;
6973;SDS011;3527;52.376;8.990;2023-03-11T06:25:56;6.03;;;2.30;;
6973;SDS011;3527;52.376;8.990;2023-03-11T06:28:27;6.67;;;2.70;;
6973;SDS011;3527;52.376;8.990;2023-03-11T06:30:54;5.83;;;2.37;;
6973;SDS011;3527;52.376;8.990;2023-03-11T06:33:24;5.37;;;2.23;;
6973;SDS011;3527;52.376;8.990;2023-03-11T06:35:57;3.33;;;1.80;;
6973;SDS011;3527;52.376;8.990;2023-03-11T06:38:25;3.37;;;1.77;;
6973;SDS011;3527;52.376;8.990;2023-03-11T06:40:52;5.77;;;2.00;;
6973;SDS011;3527;52.376;8.990;2023-03-11T06:43:20;5.47;;;2.40;;
6973;SDS011;3527;52.376;8.990;2023-03-11T06:45:47;4.53;;;2.03;;
6973;SDS011;3527;52.376;8.990;2023-03-11T06:48:14;6.47;;;2.00;;
6973;SDS011;3527;52.376;8.990;2023-03-11T06:50:41;8.00;;;1.90;;
6973;SDS011;3527;52.376;8.990;2023-03-11T06:53:08;8.30;;;1.80;;
6973;SDS011;3527;52.376;8.990;2023-03-11T06:55:34;4.80;;;2.37;;
6973;SDS011;3527;52.376;8.990;2023-03-11T06:58:02;5.20;;;1.80;;
6973;SDS011;3527;52.376;8.990;2023-03-11T07:00:29;4.70;;;1.80;;
6973;SDS011;3527;52.376;8.990;2023-03-11T07:02:56;5.77;;;1.60;;
6973;SDS011;3527;52.376;8.990;2023-03-11T07:05:23;5.40;;;1.40;;
6973;SDS011;3527;52.376;8.990;2023-03-11T07:07:52;4.53;;;1.43;;
6973;SDS011;3527;52.376;8.990;2023-03-11T07:10:19;5.37;;;1.83;;
6973;SDS011;3527;52.376;8.990;2023-03-11T07:12:46;3.80;;;1.83;;
6973;SDS011;3527;52.376;8.990;2023-03-11T07:15:13;9.77;;;1.80;;
6973;SDS011;3527;52.376;8.990;2023-03-11T07:17:40;3.60;;;1.53;;
6973;SDS011;3527;52.376;8.990;2023-03-11T07:20:07;6.60;;;2.00;;
6973;SDS011;3527;52.376;8.990;2023-03-11T07:22:34;3.90;;;1.97;;
6973;SDS011;3527;52.376;8.990;2023-03-11T07:25:01;5.93;;;1.70;;
6973;SDS011;3527;52.376;8.990;2023-03-11T07:27:28;5.77;;;1.53;;
6973;SDS011;3527;52.376;8.990;2023-03-11T07:29:55;3.73;;;1.50;;
6973;SDS011;3527;52.376;8.990;2023-03-11T07:32:21;4.63;;;1.50;;
6973;SDS011;3527;52.376;8.990;2023-03-11T07:34:48;4.40;;;1.70;;
6973;SDS011;3527;52.376;8.990;2023-03-11T07:37:15;7.17;;;1.90;;
6973;SDS011;3527;52.376;8.990;2023-03-11T07:39:42;3.77;;;1.40;;
6973;SDS011;3527;52.376;8.990;2023-03-11T07:42:08;5.47;;;2.10;;
6973;SDS011;3527;52.376;8.990;2023-03-11T07:44:35;3.30;;;2.07;;
6973;SDS011;3527;52.376;8.990;2023-03-11T07:47:02;3.87;;;1.57;;
6973;SDS011;3527;52.376;8.990;2023-03-11T07:49:30;4.43;;;1.90;;
6973;SDS011;3527;52.376;8.990;2023-03-11T07:51:57;7.30;;;2.00;;
6973;SDS011;3527;52.376;8.990;2023-03-11T07:54:24;5.30;;;2.40;;
6973;SDS011;3527;52.376;8.990;2023-03-11T07:56:51;3.17;;;1.67;;
6973;SDS011;3527;52.376;8.990;2023-03-11T07:59:17;6.27;;;2.03;;
6973;SDS011;3527;52.376;8.990;2023-03-11T08:01:44;4.87;;;1.70;;
6973;SDS011;3527;52.376;8.990;2023-03-11T08:04:13;6.57;;;2.27;;
6973;SDS011;3527;52.376;8.990;2023-03-11T08:06:43;7.17;;;1.80;;
6973;SDS011;3527;52.376;8.990;2023-03-11T08:09:11;3.73;;;1.93;;
6973;SDS011;3527;52.376;8.990;2023-03-11T08:11:38;8.67;;;2.23;;
6973;SDS011;3527;52.376;8.990;2023-03-11T08:14:05;8.00;;;1.90;;
6973;SDS011;3527;52.376;8.990;2023-03-11T08:16:32;3.97;;;1.83;;
6973;SDS011;3527;52.376;8.990;2023-03-11T08:18:59;5.37;;;2.10;;
6973;SDS011;3527;52.376;8.990;2023-03-11T08:21:27;7.20;;;1.73;;
6973;SDS011;3527;52.376;8.990;2023-03-11T08:23:56;3.93;;;2.03;;
6973;SDS011;3527;52.376;8.990;2023-03-11T08:26:25;4.90;;;2.30;;
6973;SDS011;3527;52.376;8.990;2023-03-11T08:28:52;4.60;;;1.97;;
6973;SDS011;3527;52.376;8.990;2023-03-11T08:31:21;4.50;;;2.10;;
6973;SDS011;3527;52.376;8.990;2023-03-11T08:33:52;6.67;;;2.20;;
6973;SDS011;3527;52.376;8.990;2023-03-11T08:36:22;9.23;;;2.53;;
6973;SDS011;3527;52.376;8.990;2023-03-11T08:38:49;4.73;;;2.33;;
6973;SDS011;3527;52.376;8.990;2023-03-11T08:41:16;7.43;;;2.07;;
6973;SDS011;3527;52.376;8.990;2023-03-11T08:43:44;5.97;;;1.90;;
6973;SDS011;3527;52.376;8.990;2023-03-11T08:46:21;11.73;;;2.90;;
6973;SDS011;3527;52.376;8.990;2023-03-11T08:48:50;5.53;;;1.93;;
6973;SDS011;3527;52.376;8.990;2023-03-11T08:51:17;6.20;;;2.00;;
6973;SDS011;3527;52.376;8.990;2023-03-11T08:53:45;4.93;;;2.17;;
6973;SDS011;3527;52.376;8.990;2023-03-11T08:56:12;3.50;;;2.00;;
6973;SDS011;3527;52.376;8.990;2023-03-11T08:58:39;4.33;;;2.00;;
6973;SDS011;3527;52.376;8.990;2023-03-11T09:01:05;7.23;;;2.70;;
6973;SDS011;3527;52.376;8.990;2023-03-11T09:03:34;5.17;;;1.60;;
6973;SDS011;3527;52.376;8.990;2023-03-11T09:06:02;6.13;;;1.97;;
6973;SDS011;3527;52.376;8.990;2023-03-11T09:08:32;7.70;;;2.17;;
6973;SDS011;3527;52.376;8.990;2023-03-11T09:10:59;7.90;;;2.20;;
6973;SDS011;3527;52.376;8.990;2023-03-11T09:13:26;5.53;;;2.03;;
6973;SDS011;3527;52.376;8.990;2023-03-11T09:15:53;6.43;;;1.90;;
6973;SDS011;3527;52.376;8.990;2023-03-11T09:18:21;10.33;;;3.00;;
6973;SDS011;3527;52.376;8.990;2023-03-11T09:20:48;8.30;;;2.13;;
6973;SDS011;3527;52.376;8.990;2023-03-11T09:23:15;3.77;;;1.50;;
6973;SDS011;3527;52.376;8.990;2023-03-11T09:25:42;6.07;;;2.10;;
6973;SDS011;3527;52.376;8.990;2023-03-11T09:28:09;5.83;;;2.33;;
6973;SDS011;3527;52.376;8.990;2023-03-11T09:30:36;8.33;;;2.40;;
6973;SDS011;3527;52.376;8.990;2023-03-11T09:33:03;2.50;;;1.50;;
6973;SDS011;3527;52.376;8.990;2023-03-11T09:35:30;4.10;;;2.00;;
6973;SDS011;3527;52.376;8.990;2023-03-11T09:37:56;5.53;;;1.73;;
6973;SDS011;3527;52.376;8.990;2023-03-11T09:40:25;6.70;;;1.80;;
6973;SDS011;3527;52.376;8.990;2023-03-11T09:43:04;7.17;;;2.10;;
6973;SDS011;3527;52.376;8.990;2023-03-11T09:45:52;6.70;;;2.00;;
6973;SDS011;3527;52.376;8.990;2023-03-11T09:52:06;4.27;;;1.90;;
6973;SDS011;3527;52.376;8.990;2023-03-11T09:54:58;5.97;;;2.17;;
6973;SDS011;3527;52.376;8.990;2023-03-11T09:57:25;3.53;;;2.00;;
6973;SDS011;3527;52.376;8.990;2023-03-11T09:59:58;6.80;;;2.43;;
6973;SDS011;3527;52.376;8.990;2023-03-11T10:02:27;3.80;;;2.00;;
6973;SDS011;3527;52.376;8.990;2023-03-11T10:05:01;4.87;;;1.90;;
6973;SDS011;3527;52.376;8.990;2023-03-11T10:07:33;5.17;;;2.07;;
6973;SDS011;3527;52.376;8.990;2023-03-11T10:10:05;6.83;;;2.40;;
6973;SDS011;3527;52.376;8.990;2023-03-11T10:15:23;4.57;;;2.10;;
6973;SDS011;3527;52.376;8.990;2023-03-11T10:18:43;6.47;;;2.10;;
6973;SDS011;3527;52.376;8.990;2023-03-11T10:21:17;3.83;;;1.93;;
6973;SDS011;3527;52.376;8.990;2023-03-11T10:26:47;5.00;;;2.03;;
6973;SDS011;3527;52.376;8.990;2023-03-11T10:30:02;4.60;;;2.20;;
6973;SDS011;3527;52.376;8.990;2023-03-11T10:32:16;7.03;;;2.10;;
6973;SDS011;3527;52.376;8.990;2023-03-11T10:34:52;6.10;;;2.30;;
6973;SDS011;3527;52.376;8.990;2023-03-11T10:37:34;5.00;;;1.87;;
6973;SDS011;3527;52.376;8.990;2023-03-11T10:40:21;5.17;;;2.30;;
6973;SDS011;3527;52.376;8.990;2023-03-11T10:42:54;3.50;;;2.07;;
6973;SDS011;3527;52.376;8.990;2023-03-11T10:45:23;4.00;;;2.60;;
6973;SDS011;3527;52.376;8.990;2023-03-11T10:47:52;5.27;;;2.27;;
6973;SDS011;3527;52.376;8.990;2023-03-11T10:50:23;6.87;;;2.20;;
6973;SDS011;3527;52.376;8.990;2023-03-11T10:55:33;4.17;;;1.87;;
6973;SDS011;3527;52.376;8.990;2023-03-11T10:58:09;4.50;;;2.13;;
6973;SDS011;3527;52.376;8.990;2023-03-11T11:00:38;4.40;;;2.37;;
6973;SDS011;3527;52.376;8.990;2023-03-11T11:03:10;6.73;;;2.10;;
6973;SDS011;3527;52.376;8.990;2023-03-11T11:05:43;4.83;;;2.13;;
6973;SDS011;3527;52.376;8.990;2023-03-11T11:08:13;5.37;;;2.00;;
6973;SDS011;3527;52.376;8.990;2023-03-11T11:10:49;5.70;;;1.67;;
6973;SDS011;3527;52.376;8.990;2023-03-11T11:13:24;7.57;;;2.40;;
6973;SDS011;3527;52.376;8.990;2023-03-11T11:16:01;8.13;;;2.00;;
6973;SDS011;3527;52.376;8.990;2023-03-11T11:19:04;7.97;;;2.50;;
6973;SDS011;3527;52.376;8.990;2023-03-11T11:21:46;5.37;;;2.40;;
6973;SDS011;3527;52.376;8.990;2023-03-11T11:24:25;3.80;;;1.97;;
6973;SDS011;3527;52.376;8.990;2023-03-11T11:29:42;5.37;;;2.00;;
6973;SDS011;3527;52.376;8.990;2023-03-11T11:32:14;7.73;;;2.27;;
6973;SDS011;3527;52.376;8.990;2023-03-11T11:34:52;5.37;;;2.10;;
6973;SDS011;3527;52.376;8.990;2023-03-11T11:37:34;9.87;;;2.70;;
6973;SDS011;3527;52.376;8.990;2023-03-11T11:42:51;6.50;;;2.43;;
6973;SDS011;3527;52.376;8.990;2023-03-11T11:45:40;7.00;;;2.50;;
6973;SDS011;3527;52.376;8.990;2023-03-11T11:48:13;6.60;;;2.47;;
6973;SDS011;3527;52.376;8.990;2023-03-11T11:50:56;6.43;;;2.53;;
6973;SDS011;3527;52.376;8.990;2023-03-11T11:56:32;5.90;;;2.27;;
6973;SDS011;3527;52.376;8.990;2023-03-11T11:58:59;5.83;;;3.40;;
6973;SDS011;3527;52.376;8.990;2023-03-11T12:13:01;4.77;;;1.90;;
6973;SDS011;3527;52.376;8.990;2023-03-11T12:18:29;5.80;;;2.07;;
6973;SDS011;3527;52.376;8.990;2023-03-11T12:21:12;8.20;;;2.37;;
6973;SDS011;3527;52.376;8.990;2023-03-11T12:26:30;9.20;;;2.00;;
6973;SDS011;3527;52.376;8.990;2023-03-11T12:32:02;7.17;;;2.23;;
6973;SDS011;3527;52.376;8.990;2023-03-11T12:34:30;4.13;;;1.80;;
6973;SDS011;3527;52.376;8.990;2023-03-11T12:37:02;5.07;;;1.90;;
6973;SDS011;3527;52.376;8.990;2023-03-11T12:39:39;4.03;;;1.90;;
6973;SDS011;3527;52.376;8.990;2023-03-11T12:44:37;5.90;;;2.40;;
6973;SDS011;3527;52.376;8.990;2023-03-11T12:49:54;4.70;;;1.80;;
6973;SDS011;3527;52.376;8.990;2023-03-11T12:52:51;5.70;;;2.13;;
6973;SDS011;3527;52.376;8.990;2023-03-11T12:55:23;4.00;;;2.20;;
6973;SDS011;3527;52.376;8.990;2023-03-11T12:57:58;3.73;;;2.07;;
6973;SDS011;3527;52.376;8.990;2023-03-11T13:00:45;4.43;;;1.83;;
6973;SDS011;3527;52.376;8.990;2023-03-11T13:06:10;5.77;;;2.40;;
6973;SDS011;3527;52.376;8.990;2023-03-11T13:08:44;4.47;;;1.90;;
6973;SDS011;3527;52.376;8.990;2023-03-11T13:14:29;5.97;;;1.90;;
6973;SDS011;3527;52.376;8.990;2023-03-11T13:19:52;4.87;;;2.13;;
6973;SDS011;3527;52.376;8.990;2023-03-11T13:28:23;4.83;;;1.63;;
6973;SDS011;3527;52.376;8.990;2023-03-11T13:36:38;3.20;;;1.43;;
6973;SDS011;3527;52.376;8.990;2023-03-11T13:41:47;4.93;;;1.60;;
6973;SDS011;3527;52.376;8.990;2023-03-11T13:44:25;2.80;;;1.30;;
6973;SDS011;3527;52.376;8.990;2023-03-11T13:47:03;5.10;;;2.00;;
6973;SDS011;3527;52.376;8.990;2023-03-11T13:49:51;6.00;;;1.80;;
6973;SDS011;3527;52.376;8.990;2023-03-11T13:52:26;5.33;;;1.63;;
6973;SDS011;3527;52.376;8.990;2023-03-11T13:55:02;5.07;;;1.40;;
6973;SDS011;3527;52.376;8.990;2023-03-11T13:57:33;4.40;;;1.60;;
6973;SDS011;3527;52.376;8.990;2023-03-11T14:00:22;4.83;;;1.60;;
6973;SDS011;3527;52.376;8.990;2023-03-11T14:02:54;2.83;;;1.00;;
6973;SDS011;3527;52.376;8.990;2023-03-11T14:05:26;4.47;;;1.47;;
6973;SDS011;3527;52.376;8.990;2023-03-11T14:10:54;3.97;;;1.00;;
6973;SDS011;3527;52.376;8.990;2023-03-11T14:13:37;3.73;;;1.37;;
6973;SDS011;3527;52.376;8.990;2023-03-11T14:16:12;3.40;;;1.10;;
6973;SDS011;3527;52.376;8.990;2023-03-11T14:18:46;4.10;;;1.30;;
6973;SDS011;3527;52.376;8.990;2023-03-11T14:21:26;2.23;;;1.23;;
6973;SDS011;3527;52.376;8.990;2023-03-11T14:23:53;5.00;;;1.37;;
6973;SDS011;3527;52.376;8.990;2023-03-11T14:26:30;5.20;;;1.23;;
6973;SDS011;3527;52.376;8.990;2023-03-11T14:29:01;3.97;;;1.10;;
6973;SDS011;3527;52.376;8.990;2023-03-11T14:31:35;3.90;;;1.10;;
6973;SDS011;3527;52.376;8.990;2023-03-11T14:34:09;3.23;;;1.30;;
6973;SDS011;3527;52.376;8.990;2023-03-11T14:36:38;4.20;;;1.20;;
6973;SDS011;3527;52.376;8.990;2023-03-11T14:39:20;3.87;;;1.30;;
6973;SDS011;3527;52.376;8.990;2023-03-11T14:41:47;6.30;;;1.37;;
6973;SDS011;3527;52.376;8.990;2023-03-11T14:44:17;5.20;;;1.57;;
6973;SDS011;3527;52.376;8.990;2023-03-11T14:46:44;2.40;;;1.10;;
6973;SDS011;3527;52.376;8.990;2023-03-11T14:49:15;6.00;;;1.20;;
6973;SDS011;3527;52.376;8.990;2023-03-11T14:51:48;2.77;;;1.17;;
6973;SDS011;3527;52.376;8.990;2023-03-11T14:54:20;2.97;;;1.10;;
6973;SDS011;3527;52.376;8.990;2023-03-11T14:57:05;3.90;;;1.10;;
6973;SDS011;3527;52.376;8.990;2023-03-11T14:59:40;6.00;;;1.23;;
6973;SDS011;3527;52.376;8.990;2023-03-11T15:04:55;3.33;;;1.30;;
6973;SDS011;3527;52.376;8.990;2023-03-11T15:07:25;3.27;;;1.20;;
6973;SDS011;3527;52.376;8.990;2023-03-11T15:09:52;5.83;;;1.70;;
6973;SDS011;3527;52.376;8.990;2023-03-11T15:12:30;4.00;;;1.40;;
6973;SDS011;3527;52.376;8.990;2023-03-11T15:14:59;3.63;;;1.30;;
6973;SDS011;3527;52.376;8.990;2023-03-11T15:17:26;3.40;;;1.40;;
6973;SDS011;3527;52.376;8.990;2023-03-11T15:20:26;4.07;;;1.83;;
6973;SDS011;3527;52.376;8.990;2023-03-11T15:22:55;3.67;;;1.80;;
6973;SDS011;3527;52.376;8.990;2023-03-11T15:25:35;7.63;;;1.30;;
6973;SDS011;3527;52.376;8.990;2023-03-11T15:28:18;5.40;;;1.83;;
6973;SDS011;3527;52.376;8.990;2023-03-11T15:30:47;4.73;;;1.50;;
6973;SDS011;3527;52.376;8.990;2023-03-11T15:33:21;3.93;;;1.40;;
6973;SDS011;3527;52.376;8.990;2023-03-11T15:35:56;2.33;;;1.33;;
6973;SDS011;3527;52.376;8.990;2023-03-11T15:38:24;5.80;;;1.63;;
6973;SDS011;3527;52.376;8.990;2023-03-11T15:40:54;4.47;;;1.57;;
6973;SDS011;3527;52.376;8.990;2023-03-11T15:43:28;5.53;;;1.53;;
6973;SDS011;3527;52.376;8.990;2023-03-11T15:45:57;5.23;;;1.77;;
6973;SDS011;3527;52.376;8.990;2023-03-11T15:48:27;2.60;;;1.30;;
6973;SDS011;3527;52.376;8.990;2023-03-11T15:50:56;2.10;;;1.10;;
6973;SDS011;3527;52.376;8.990;2023-03-11T15:53:24;4.27;;;1.30;;
6973;SDS011;3527;52.376;8.990;2023-03-11T15:55:53;5.33;;;1.47;;
6973;SDS011;3527;52.376;8.990;2023-03-11T15:58:32;3.70;;;1.60;;
6973;SDS011;3527;52.376;8.990;2023-03-11T16:01:00;4.23;;;1.33;;
6973;SDS011;3527;52.376;8.990;2023-03-11T16:03:28;4.03;;;1.50;;
6973;SDS011;3527;52.376;8.990;2023-03-11T16:05:56;5.73;;;1.90;;
6973;SDS011;3527;52.376;8.990;2023-03-11T16:08:23;5.40;;;1.33;;
6973;SDS011;3527;52.376;8.990;2023-03-11T16:10:50;7.23;;;1.50;;
6973;SDS011;3527;52.376;8.990;2023-03-11T16:13:17;4.40;;;1.40;;
6973;SDS011;3527;52.376;8.990;2023-03-11T16:15:43;3.90;;;1.30;;
6973;SDS011;3527;52.376;8.990;2023-03-11T16:18:12;3.00;;;1.20;;
6973;SDS011;3527;52.376;8.990;2023-03-11T16:20:49;4.70;;;1.67;;
6973;SDS011;3527;52.376;8.990;2023-03-11T16:23:18;4.23;;;1.20;;
6973;SDS011;3527;52.376;8.990;2023-03-11T16:25:48;4.87;;;1.60;;
6973;SDS011;3527;52.376;8.990;2023-03-11T16:28:15;3.57;;;1.40;;
6973;SDS011;3527;52.376;8.990;2023-03-11T16:30:43;3.70;;;1.50;;
6973;SDS011;3527;52.376;8.990;2023-03-11T16:33:10;3.53;;;1.33;;
6973;SDS011;3527;52.376;8.990;2023-03-11T16:35:37;5.03;;;1.77;;
6973;SDS011;3527;52.376;8.990;2023-03-11T16:38:04;4.73;;;1.60;;
6973;SDS011;3527;52.376;8.990;2023-03-11T16:40:33;5.87;;;1.70;;
6973;SDS011;3527;52.376;8.990;2023-03-11T16:43:01;4.17;;;1.33;;
6973;SDS011;3527;52.376;8.990;2023-03-11T16:45:30;1.90;;;1.17;;
6973;SDS011;3527;52.376;8.990;2023-03-11T16:47:58;3.63;;;1.27;;
6973;SDS011;3527;52.376;8.990;2023-03-11T16:50:25;4.20;;;1.60;;
6973;SDS011;3527;52.376;8.990;2023-03-11T16:52:52;5.47;;;1.60;;